createdAt,value
2018-03-14T00:00:56.199Z,53.66
2018-03-14T00:01:58.723Z,53.73
2018-03-14T00:03:01.251Z,53.62
2018-03-14T00:04:03.783Z,53.55
2018-03-14T00:05:06.325Z,53.61
2018-03-14T00:06:08.844Z,53.58
2018-03-14T00:07:11.374Z,53.60
2018-03-14T00:08:13.862Z,53.68
2018-03-14T00:09:16.443Z,53.73
2018-03-14T00:10:18.982Z,53.78
2018-03-14T00:11:21.512Z,53.78
2018-03-14T00:12:24.043Z,53.70
2018-03-14T00:13:26.577Z,53.65
2018-03-14T00:14:29.122Z,53.85
2018-03-14T00:15:31.664Z,54.05
2018-03-14T00:16:34.210Z,54.15
2018-03-14T00:17:36.732Z,54.22
2018-03-14T00:18:39.252Z,54.19
2018-03-14T00:19:41.800Z,54.14
2018-03-14T00:20:44.350Z,54.20
2018-03-14T00:21:46.862Z,54.21
2018-03-14T00:22:49.381Z,54.18
2018-03-14T00:23:51.901Z,54.20
2018-03-14T00:24:54.428Z,54.27
2018-03-14T00:25:57.005Z,54.34
2018-03-14T00:26:59.518Z,54.36
2018-03-14T00:28:02.030Z,54.42
2018-03-14T00:29:04.554Z,54.29
2018-03-14T00:30:07.063Z,54.30
2018-03-14T00:31:09.744Z,54.45
2018-03-14T00:32:12.272Z,54.65
2018-03-14T00:33:14.796Z,54.56
2018-03-14T00:34:17.308Z,54.49
2018-03-14T00:35:19.842Z,54.39
2018-03-14T00:36:22.379Z,54.21
2018-03-14T00:37:24.910Z,54.12
2018-03-14T00:38:27.422Z,54.06
2018-03-14T00:39:29.971Z,54.01
2018-03-14T00:40:32.486Z,54.07
2018-03-14T00:41:35.052Z,54.08
2018-03-14T00:42:37.599Z,54.08
2018-03-14T00:43:40.142Z,54.02
2018-03-14T00:44:42.667Z,54.05
2018-03-14T00:45:45.210Z,54.06
2018-03-14T00:46:47.756Z,54.01
2018-03-14T00:47:50.288Z,53.96
2018-03-14T00:48:52.818Z,54.01
2018-03-14T00:49:55.355Z,54.04
2018-03-14T00:50:57.873Z,53.96
2018-03-14T00:52:00.408Z,53.97
2018-03-14T00:53:02.944Z,54.05
2018-03-14T00:54:05.486Z,54.00
2018-03-14T00:55:08.023Z,54.05
2018-03-14T00:56:10.562Z,54.04
2018-03-14T00:57:13.159Z,54.07
2018-03-14T00:58:15.702Z,54.03
2018-03-14T00:59:18.225Z,54.04
2018-03-14T01:00:20.746Z,54.05
2018-03-14T01:01:23.268Z,54.14
2018-03-14T01:02:25.816Z,54.13
2018-03-14T01:03:28.342Z,54.10
2018-03-14T01:04:30.882Z,54.14
2018-03-14T01:05:33.412Z,54.11
2018-03-14T01:06:35.928Z,54.12
2018-03-14T01:07:38.472Z,54.19
2018-03-14T01:08:41.017Z,54.23
2018-03-14T01:09:43.535Z,54.70
2018-03-14T01:10:46.069Z,55.04
2018-03-14T01:11:48.583Z,55.07
2018-03-14T01:12:51.138Z,55.04
2018-03-14T01:13:53.660Z,54.86
2018-03-14T01:14:56.185Z,54.91
2018-03-14T01:15:58.725Z,55.15
2018-03-14T01:17:01.244Z,55.02
2018-03-14T01:18:03.816Z,55.01
2018-03-14T01:19:06.345Z,54.97
2018-03-14T01:20:08.883Z,54.86
2018-03-14T01:21:11.426Z,54.74
2018-03-14T01:22:13.926Z,54.73
2018-03-14T01:23:16.487Z,54.92
2018-03-14T01:24:18.993Z,55.22
2018-03-14T01:25:21.518Z,55.17
2018-03-14T01:26:24.049Z,55.11
2018-03-14T01:27:26.573Z,54.93
2018-03-14T01:28:29.124Z,54.83
2018-03-14T01:29:31.654Z,54.82
2018-03-14T01:30:34.243Z,54.92
2018-03-14T01:31:36.758Z,54.90
2018-03-14T01:32:39.268Z,54.81
2018-03-14T01:33:41.826Z,54.85
2018-03-14T01:34:44.353Z,54.94
2018-03-14T01:35:46.895Z,54.85
2018-03-14T01:36:49.418Z,54.89
2018-03-14T01:37:51.944Z,54.90
2018-03-14T01:38:54.506Z,55.10
2018-03-14T01:39:57.044Z,55.27
2018-03-14T01:40:59.578Z,55.24
2018-03-14T01:42:02.113Z,55.24
2018-03-14T01:43:04.624Z,55.50
2018-03-14T01:44:07.197Z,55.41
2018-03-14T01:45:09.724Z,55.22
2018-03-14T01:46:12.248Z,55.06
2018-03-14T01:47:14.759Z,55.10
2018-03-14T01:48:17.306Z,55.49
2018-03-14T01:49:19.857Z,55.47
2018-03-14T01:50:22.380Z,55.48
2018-03-14T01:51:24.928Z,55.18
2018-03-14T01:52:27.473Z,55.18
2018-03-14T01:53:30.015Z,55.37
2018-03-14T01:54:32.557Z,55.24
2018-03-14T01:55:35.093Z,55.16
2018-03-14T01:56:37.612Z,55.13
2018-03-14T01:57:40.144Z,55.16
2018-03-14T01:58:42.682Z,55.20
2018-03-14T01:59:45.222Z,55.23
2018-03-14T02:00:47.748Z,55.31
2018-03-14T02:01:50.277Z,55.32
2018-03-14T02:02:52.822Z,55.32
2018-03-14T02:03:55.338Z,55.44
2018-03-14T02:04:57.862Z,55.34
2018-03-14T02:06:00.376Z,55.36
2018-03-14T02:07:02.914Z,55.35
2018-03-14T02:08:05.436Z,55.42
2018-03-14T02:09:07.951Z,55.38
2018-03-14T02:10:10.495Z,55.38
2018-03-14T02:11:13.009Z,55.38
2018-03-14T02:12:15.531Z,55.33
2018-03-14T02:13:18.077Z,55.30
2018-03-14T02:14:20.628Z,55.35
2018-03-14T02:15:23.181Z,55.36
2018-03-14T02:16:25.722Z,55.39
2018-03-14T02:17:28.240Z,55.38
2018-03-14T02:18:30.767Z,55.38
2018-03-14T02:19:33.304Z,55.41
2018-03-14T02:20:35.860Z,55.47
2018-03-14T02:21:38.405Z,55.43
2018-03-14T02:22:40.932Z,55.32
2018-03-14T02:23:43.466Z,55.25
2018-03-14T02:24:45.983Z,55.40
2018-03-14T02:25:48.534Z,55.61
2018-03-14T02:26:51.056Z,55.60
2018-03-14T02:27:53.576Z,55.53
2018-03-14T02:28:56.114Z,55.39
2018-03-14T02:29:58.630Z,55.37
2018-03-14T02:31:01.190Z,55.70
2018-03-14T02:32:03.720Z,55.73
2018-03-14T02:33:06.236Z,56.14
2018-03-14T02:34:08.746Z,56.46
2018-03-14T02:35:11.258Z,56.44
2018-03-14T02:36:13.798Z,56.46
2018-03-14T02:37:16.326Z,56.40
2018-03-14T02:38:18.866Z,56.53
2018-03-14T02:39:21.404Z,56.41
2018-03-14T02:40:23.920Z,56.20
2018-03-14T02:41:26.483Z,56.20
2018-03-14T02:42:29.088Z,56.36
2018-03-14T02:43:31.614Z,56.10
2018-03-14T02:44:34.145Z,56.29
2018-03-14T02:45:36.654Z,56.63
2018-03-14T02:46:39.180Z,56.63
2018-03-14T02:47:41.682Z,56.59
2018-03-14T02:48:44.186Z,56.78
2018-03-14T02:49:46.715Z,56.88
2018-03-14T02:50:49.212Z,56.95
2018-03-14T02:51:51.747Z,57.01
2018-03-14T02:52:54.239Z,57.14
2018-03-14T02:53:56.737Z,57.22
2018-03-14T02:54:59.241Z,57.03
2018-03-14T02:56:01.747Z,57.09
2018-03-14T02:57:04.272Z,56.95
2018-03-14T02:58:06.767Z,56.84
2018-03-14T02:59:09.261Z,56.54
2018-03-14T03:00:11.772Z,56.92
2018-03-14T03:01:14.280Z,57.06
2018-03-14T03:02:16.911Z,57.11
2018-03-14T03:03:19.417Z,57.19
2018-03-14T03:04:21.910Z,57.14
2018-03-14T03:05:24.432Z,57.15
2018-03-14T03:06:27.050Z,57.08
2018-03-14T03:07:29.590Z,56.94
2018-03-14T03:08:32.084Z,56.98
2018-03-14T03:09:34.588Z,57.01
2018-03-14T03:10:37.109Z,56.98
2018-03-14T03:11:39.612Z,57.00
2018-03-14T03:12:42.126Z,57.04
2018-03-14T03:13:44.625Z,57.03
2018-03-14T03:14:47.112Z,56.83
2018-03-14T03:15:49.627Z,56.57
2018-03-14T03:16:52.146Z,56.62
2018-03-14T03:17:54.670Z,56.67
2018-03-14T03:18:57.177Z,56.55
2018-03-14T03:19:59.693Z,56.45
2018-03-14T03:21:02.206Z,56.56
2018-03-14T03:22:04.706Z,56.68
2018-03-14T03:23:07.239Z,56.92
2018-03-14T03:24:09.734Z,57.06
2018-03-14T03:25:12.251Z,56.92
2018-03-14T03:26:14.752Z,56.89
2018-03-14T03:27:17.262Z,56.79
2018-03-14T03:28:19.788Z,56.89
2018-03-14T03:29:22.411Z,57.01
2018-03-14T03:30:24.914Z,56.95
2018-03-14T03:31:27.411Z,56.88
2018-03-14T03:32:29.906Z,56.89
2018-03-14T03:33:32.443Z,57.08
2018-03-14T03:34:34.932Z,57.20
2018-03-14T03:35:37.446Z,57.28
2018-03-14T03:36:39.972Z,57.28
2018-03-14T03:37:42.486Z,57.25
2018-03-14T03:38:45.026Z,57.44
2018-03-14T03:39:47.539Z,57.45
2018-03-14T03:40:50.041Z,57.22
2018-03-14T03:41:52.558Z,56.78
2018-03-14T03:42:55.070Z,57.02
2018-03-14T03:43:57.610Z,57.24
2018-03-14T03:45:00.117Z,57.54
2018-03-14T03:46:02.629Z,57.57
2018-03-14T03:47:05.128Z,57.32
2018-03-14T03:48:07.618Z,57.23
2018-03-14T03:49:10.134Z,57.39
2018-03-14T03:50:12.645Z,57.50
2018-03-14T03:51:15.138Z,57.51
2018-03-14T03:52:17.647Z,57.36
2018-03-14T03:53:20.159Z,57.43
2018-03-14T03:54:22.684Z,57.35
2018-03-14T03:55:25.189Z,57.21
2018-03-14T03:56:27.700Z,57.00
2018-03-14T03:57:30.228Z,56.72
2018-03-14T03:58:32.755Z,56.85
2018-03-14T03:59:35.311Z,57.26
2018-03-14T04:00:37.842Z,57.39
2018-03-14T04:01:40.366Z,57.29
2018-03-14T04:02:42.888Z,57.14
2018-03-14T04:03:45.431Z,57.57
2018-03-14T04:04:47.956Z,57.65
2018-03-14T04:05:50.486Z,57.74
2018-03-14T04:06:53.004Z,57.86
2018-03-14T04:07:55.490Z,57.76
2018-03-14T04:08:58.012Z,57.74
2018-03-14T04:10:00.558Z,57.83
2018-03-14T04:11:03.089Z,57.82
2018-03-14T04:12:05.586Z,57.76
2018-03-14T04:13:08.097Z,57.79
2018-03-14T04:14:10.604Z,57.82
2018-03-14T04:15:13.148Z,57.72
2018-03-14T04:16:15.665Z,57.69
2018-03-14T04:17:18.182Z,57.78
2018-03-14T04:18:20.694Z,57.29
2018-03-14T04:19:23.218Z,57.00
2018-03-14T04:20:25.755Z,56.84
2018-03-14T04:21:28.301Z,56.68
2018-03-14T04:22:30.813Z,56.56
2018-03-14T04:23:33.331Z,56.45
2018-03-14T04:24:35.844Z,56.55
2018-03-14T04:25:38.354Z,56.72
2018-03-14T04:26:40.871Z,56.73
2018-03-14T04:27:43.422Z,56.80
2018-03-14T04:28:45.908Z,56.78
2018-03-14T04:29:48.423Z,56.78
2018-03-14T04:30:50.952Z,57.26
2018-03-14T04:31:53.464Z,57.41
2018-03-14T04:32:55.955Z,57.48
2018-03-14T04:33:58.455Z,57.46
2018-03-14T04:35:00.965Z,57.53
2018-03-14T04:36:03.531Z,57.75
2018-03-14T04:37:06.026Z,57.73
2018-03-14T04:38:08.916Z,57.68
2018-03-14T04:39:11.600Z,57.52
2018-03-14T04:40:14.103Z,57.43
2018-03-14T04:41:16.619Z,57.46
2018-03-14T04:42:19.131Z,57.37
2018-03-14T04:43:21.630Z,57.38
2018-03-14T04:44:24.142Z,57.59
2018-03-14T04:45:26.663Z,57.70
2018-03-14T04:46:29.186Z,57.47
2018-03-14T04:47:31.678Z,57.12
2018-03-14T04:48:34.200Z,57.08
2018-03-14T04:49:36.700Z,57.12
2018-03-14T04:50:39.188Z,57.28
2018-03-14T04:51:41.712Z,57.44
2018-03-14T04:52:44.203Z,57.83
2018-03-14T04:53:46.689Z,57.94
2018-03-14T04:54:49.190Z,57.99
2018-03-14T04:55:51.692Z,57.99
2018-03-14T04:56:54.206Z,58.07
2018-03-14T04:57:56.711Z,58.16
2018-03-14T04:58:59.222Z,58.18
2018-03-14T05:00:01.743Z,57.79
2018-03-14T05:01:04.240Z,57.59
2018-03-14T05:02:06.780Z,57.50
2018-03-14T05:03:09.282Z,57.48
2018-03-14T05:04:11.785Z,57.36
2018-03-14T05:05:14.414Z,57.41
2018-03-14T05:06:16.907Z,57.56
2018-03-14T05:07:19.428Z,57.73
2018-03-14T05:08:21.944Z,58.00
2018-03-14T05:09:24.452Z,57.98
2018-03-14T05:10:26.983Z,57.93
2018-03-14T05:11:29.479Z,57.95
2018-03-14T05:12:32.015Z,58.07
2018-03-14T05:13:34.515Z,58.13
2018-03-14T05:14:37.021Z,58.18
2018-03-14T05:15:39.516Z,58.07
2018-03-14T05:16:42.030Z,58.12
2018-03-14T05:17:44.543Z,58.27
2018-03-14T05:18:47.061Z,58.38
2018-03-14T05:19:49.689Z,58.42
2018-03-14T05:20:52.206Z,58.56
2018-03-14T05:21:54.709Z,58.64
2018-03-14T05:22:57.233Z,58.59
2018-03-14T05:23:59.744Z,58.74
2018-03-14T05:25:02.239Z,58.91
2018-03-14T05:26:04.756Z,58.86
2018-03-14T05:27:07.265Z,58.55
2018-03-14T05:28:09.790Z,58.49
2018-03-14T05:29:12.305Z,58.21
2018-03-14T05:30:14.826Z,57.98
2018-03-14T05:31:17.341Z,57.96
2018-03-14T05:32:19.861Z,58.05
2018-03-14T05:33:22.410Z,58.03
2018-03-14T05:34:24.915Z,58.37
2018-03-14T05:35:27.430Z,58.55
2018-03-14T05:36:29.933Z,58.68
2018-03-14T05:37:32.463Z,58.68
2018-03-14T05:38:34.966Z,58.66
2018-03-14T05:39:37.564Z,58.74
2018-03-14T05:40:40.277Z,58.76
2018-03-14T05:41:43.692Z,58.73
2018-03-14T05:42:46.225Z,58.72
2018-03-14T05:43:48.732Z,58.75
2018-03-14T05:44:51.257Z,58.85
2018-03-14T05:45:53.760Z,58.69
2018-03-14T05:46:56.283Z,58.51
2018-03-14T05:47:58.798Z,58.35
2018-03-14T05:49:01.338Z,58.29
2018-03-14T05:50:03.859Z,58.29
2018-03-14T05:51:06.346Z,58.25
2018-03-14T05:52:08.872Z,58.27
2018-03-14T05:53:11.389Z,58.23
2018-03-14T05:54:13.879Z,58.33
2018-03-14T05:55:16.380Z,58.36
2018-03-14T05:56:18.881Z,58.57
2018-03-14T05:57:21.394Z,58.86
2018-03-14T05:58:23.912Z,58.76
2018-03-14T05:59:26.420Z,58.79
2018-03-14T06:00:28.927Z,58.76
2018-03-14T06:01:31.442Z,58.66
2018-03-14T06:02:34.004Z,58.68
2018-03-14T06:03:36.538Z,58.84
2018-03-14T06:04:39.088Z,58.78
2018-03-14T06:05:41.588Z,58.71
2018-03-14T06:06:44.078Z,58.58
2018-03-14T06:07:46.772Z,58.47
2018-03-14T06:08:49.296Z,58.46
2018-03-14T06:09:51.797Z,58.45
2018-03-14T06:10:54.291Z,58.62
2018-03-14T06:11:56.878Z,58.56
2018-03-14T06:12:59.382Z,58.67
2018-03-14T06:14:01.960Z,58.65
2018-03-14T06:15:04.481Z,58.64
2018-03-14T06:16:06.986Z,58.59
2018-03-14T06:17:09.484Z,58.60
2018-03-14T06:18:12.025Z,58.45
2018-03-14T06:19:14.606Z,58.40
2018-03-14T06:20:17.116Z,58.41
2018-03-14T06:21:19.619Z,58.40
2018-03-14T06:22:22.163Z,58.46
2018-03-14T06:23:24.669Z,58.46
2018-03-14T06:24:27.180Z,58.59
2018-03-14T06:25:29.695Z,58.81
2018-03-14T06:26:32.209Z,58.96
2018-03-14T06:27:34.726Z,59.12
2018-03-14T06:28:37.218Z,59.10
2018-03-14T06:29:39.730Z,59.30
2018-03-14T06:30:42.218Z,59.31
2018-03-14T06:31:44.734Z,59.37
2018-03-14T06:32:47.246Z,59.41
2018-03-14T06:33:49.753Z,59.44
2018-03-14T06:34:52.277Z,59.32
2018-03-14T06:35:54.804Z,59.35
2018-03-14T06:36:57.329Z,59.27
2018-03-14T06:37:59.854Z,59.29
2018-03-14T06:39:02.354Z,59.31
2018-03-14T06:40:04.900Z,59.34
2018-03-14T06:41:07.532Z,59.36
2018-03-14T06:42:10.258Z,59.44
2018-03-14T06:43:12.764Z,59.51
2018-03-14T06:44:15.265Z,59.39
2018-03-14T06:45:17.789Z,59.18
2018-03-14T06:46:20.303Z,59.68
2018-03-14T06:47:22.805Z,59.38
2018-03-14T06:48:25.335Z,59.29
2018-03-14T06:49:27.862Z,59.21
2018-03-14T06:50:30.410Z,59.18
2018-03-14T06:51:32.898Z,59.44
2018-03-14T06:52:35.397Z,59.52
2018-03-14T06:53:37.887Z,59.53
2018-03-14T06:54:40.427Z,59.44
2018-03-14T06:55:42.942Z,59.14
2018-03-14T06:56:45.492Z,59.17
2018-03-14T06:57:48.004Z,59.30
2018-03-14T06:59:02.315Z,59.37
2018-03-14T07:00:16.556Z,59.02
2018-03-14T07:03:11.820Z,59.28
2018-03-14T07:04:26.255Z,59.42
2018-03-14T07:05:40.733Z,59.39
2018-03-14T07:06:43.224Z,59.24
2018-03-14T07:07:45.767Z,59.17
2018-03-14T07:08:48.321Z,59.26
2018-03-14T07:09:50.874Z,59.30
2018-03-14T07:10:53.388Z,59.22
2018-03-14T07:11:55.961Z,59.25
2018-03-14T07:12:58.458Z,59.44
2018-03-14T07:14:00.973Z,59.45
2018-03-14T07:15:03.486Z,59.45
2018-03-14T07:16:05.998Z,59.46
2018-03-14T07:17:08.536Z,59.39
2018-03-14T07:18:11.058Z,59.26
2018-03-14T07:19:13.583Z,59.32
2018-03-14T07:20:16.080Z,59.21
2018-03-14T07:21:18.573Z,59.16
2018-03-14T07:22:21.115Z,59.08
2018-03-14T07:23:23.625Z,59.02
2018-03-14T07:24:26.131Z,59.05
2018-03-14T07:25:28.793Z,59.00
2018-03-14T07:26:31.328Z,58.88
2018-03-14T07:27:33.872Z,58.98
2018-03-14T07:28:36.412Z,58.91
2018-03-14T07:29:38.911Z,59.19
2018-03-14T07:30:41.417Z,59.34
2018-03-14T07:31:43.934Z,59.48
2018-03-14T07:32:46.472Z,59.34
2018-03-14T07:33:49.107Z,57.65
2018-03-14T07:34:51.609Z,56.34
2018-03-14T07:35:55.041Z,56.11
2018-03-14T07:36:57.562Z,56.24
2018-03-14T07:38:00.099Z,55.79
2018-03-14T07:39:02.625Z,55.02
2018-03-14T07:40:05.127Z,54.90
2018-03-14T07:41:07.628Z,54.88
2018-03-14T07:42:10.148Z,55.02
2018-03-14T07:43:12.686Z,54.63
2018-03-14T07:44:15.190Z,53.85
2018-03-14T07:45:17.718Z,53.61
2018-03-14T07:46:20.225Z,53.51
2018-03-14T07:47:22.728Z,53.21
2018-03-14T07:48:25.244Z,53.02
2018-03-14T07:49:27.742Z,52.82
2018-03-14T07:50:30.250Z,52.64
2018-03-14T07:51:32.765Z,52.45
2018-03-14T07:52:35.343Z,52.25
2018-03-14T07:53:37.888Z,51.67
2018-03-14T07:54:40.463Z,51.67
2018-03-14T07:55:42.970Z,51.88
2018-03-14T07:56:45.482Z,51.79
2018-03-14T07:57:47.993Z,51.46
2018-03-14T07:58:50.520Z,51.36
2018-03-14T07:59:53.174Z,51.51
2018-03-14T08:00:55.688Z,51.73
2018-03-14T08:01:58.234Z,51.86
2018-03-14T08:03:00.756Z,51.78
2018-03-14T08:04:03.292Z,51.56
2018-03-14T08:05:05.803Z,51.51
2018-03-14T08:06:08.321Z,51.71
2018-03-14T08:07:10.858Z,51.76
2018-03-14T08:08:13.359Z,51.77
2018-03-14T08:09:15.893Z,51.78
2018-03-14T08:10:18.403Z,51.74
2018-03-14T08:11:20.912Z,51.80
2018-03-14T08:12:23.474Z,51.54
2018-03-14T08:13:26.025Z,51.11
2018-03-14T08:14:28.555Z,51.01
2018-03-14T08:15:31.064Z,50.99
2018-03-14T08:16:33.562Z,50.71
2018-03-14T08:17:36.103Z,50.29
2018-03-14T08:18:38.673Z,49.77
2018-03-14T08:19:41.200Z,49.42
2018-03-14T08:20:43.709Z,49.13
2018-03-14T08:21:46.226Z,48.90
2018-03-14T08:22:48.746Z,48.66
2018-03-14T08:23:51.242Z,48.59
2018-03-14T08:24:53.763Z,49.13
2018-03-14T08:25:56.281Z,49.37
2018-03-14T08:26:58.801Z,49.55
2018-03-14T08:28:01.329Z,49.19
2018-03-14T08:29:03.856Z,48.66
2018-03-14T08:30:06.404Z,48.83
2018-03-14T08:31:08.930Z,49.25
2018-03-14T08:32:11.436Z,49.46
2018-03-14T08:33:13.938Z,49.48
2018-03-14T08:34:16.452Z,49.36
2018-03-14T08:35:18.982Z,49.47
2018-03-14T08:36:21.488Z,49.13
2018-03-14T08:37:24.010Z,49.09
2018-03-14T08:38:26.512Z,49.29
2018-03-14T08:39:29.020Z,49.48
2018-03-14T08:40:31.532Z,49.52
2018-03-14T08:41:34.055Z,48.87
2018-03-14T08:42:36.576Z,48.22
2018-03-14T08:43:39.088Z,47.51
2018-03-14T08:44:41.610Z,47.10
2018-03-14T08:45:44.157Z,46.89
2018-03-14T08:46:46.719Z,46.88
2018-03-14T08:47:49.367Z,46.79
2018-03-14T08:48:51.875Z,46.81
2018-03-14T08:49:54.391Z,47.41
2018-03-14T08:50:56.936Z,47.69
2018-03-14T08:51:59.523Z,47.76
2018-03-14T08:53:02.050Z,48.08
2018-03-14T08:54:04.573Z,48.09
2018-03-14T08:55:07.109Z,47.88
2018-03-14T08:56:09.765Z,47.36
2018-03-14T08:57:12.270Z,47.29
2018-03-14T08:58:14.783Z,47.43
2018-03-14T08:59:17.319Z,47.52
2018-03-14T09:00:19.832Z,47.94
2018-03-14T09:01:22.467Z,48.24
2018-03-14T09:02:25.027Z,47.99
2018-03-14T09:03:27.679Z,48.09
2018-03-14T09:04:30.174Z,47.95
2018-03-14T09:05:32.702Z,48.04
2018-03-14T09:06:35.236Z,48.84
2018-03-14T09:07:37.767Z,49.48
2018-03-14T09:08:40.284Z,49.48
2018-03-14T09:09:43.001Z,49.05
2018-03-14T09:10:45.522Z,49.48
2018-03-14T09:11:48.039Z,49.50
2018-03-14T09:12:50.561Z,49.60
2018-03-14T09:13:53.087Z,49.45
2018-03-14T09:14:55.760Z,49.55
2018-03-14T09:15:58.327Z,49.39
2018-03-14T09:17:00.868Z,49.44
2018-03-14T09:18:03.375Z,49.35
2018-03-14T09:19:05.888Z,49.40
2018-03-14T09:20:08.388Z,49.60
2018-03-14T09:21:10.919Z,49.43
2018-03-14T09:22:13.459Z,49.95
2018-03-14T09:23:15.967Z,49.56
2018-03-14T09:24:18.477Z,49.29
2018-03-14T09:25:21.004Z,49.45
2018-03-14T09:26:23.506Z,48.56
2018-03-14T09:27:26.041Z,48.61
2018-03-14T09:28:28.586Z,48.68
2018-03-14T09:29:31.101Z,48.66
2018-03-14T09:30:33.772Z,48.60
2018-03-14T09:31:36.313Z,48.54
2018-03-14T09:32:38.908Z,48.61
2018-03-14T09:33:41.420Z,48.51
2018-03-14T09:34:43.977Z,48.42
2018-03-14T09:35:46.548Z,48.51
2018-03-14T09:36:49.073Z,48.52
2018-03-14T09:37:51.633Z,48.49
2018-03-14T09:38:54.157Z,48.36
2018-03-14T09:39:56.698Z,48.68
2018-03-14T09:40:59.194Z,49.02
2018-03-14T09:42:01.704Z,48.36
2018-03-14T09:43:10.912Z,48.44
2018-03-14T09:44:13.467Z,48.61
2018-03-14T09:45:16.012Z,48.32
2018-03-14T09:46:18.492Z,48.46
2018-03-14T09:47:21.004Z,48.44
2018-03-14T09:48:23.901Z,48.43
2018-03-14T09:49:26.555Z,48.12
2018-03-14T09:50:29.055Z,48.22
2018-03-14T09:51:31.574Z,48.33
2018-03-14T09:52:34.080Z,47.95
2018-03-14T09:53:36.622Z,48.43
2018-03-14T09:54:39.132Z,48.34
2018-03-14T09:55:41.618Z,48.45
2018-03-14T09:56:44.115Z,48.15
2018-03-14T09:57:46.620Z,48.26
2018-03-14T09:58:49.148Z,48.12
2018-03-14T09:59:51.653Z,48.21
2018-03-14T10:00:54.160Z,48.32
2018-03-14T10:01:56.650Z,48.43
2018-03-14T10:02:59.160Z,48.46
2018-03-14T10:04:01.697Z,48.38
2018-03-14T10:05:04.186Z,48.33
2018-03-14T10:06:06.692Z,48.29
2018-03-14T10:07:09.209Z,48.27
2018-03-14T10:08:11.770Z,48.85
2018-03-14T10:09:14.284Z,48.28
2018-03-14T10:10:16.779Z,48.10
2018-03-14T10:11:19.288Z,47.98
2018-03-14T10:12:21.796Z,48.03
2018-03-14T10:13:24.302Z,48.11
2018-03-14T10:14:26.828Z,48.03
2018-03-14T10:15:29.326Z,48.04
2018-03-14T10:16:31.844Z,48.23
2018-03-14T10:17:34.353Z,48.18
2018-03-14T10:18:36.871Z,48.08
2018-03-14T10:19:39.487Z,48.16
2018-03-14T10:20:42.001Z,48.06
2018-03-14T10:21:44.487Z,48.53
2018-03-14T10:22:47.014Z,48.80
2018-03-14T10:23:49.566Z,48.49
2018-03-14T10:24:52.100Z,48.23
2018-03-14T10:25:54.611Z,48.04
2018-03-14T10:26:57.158Z,48.21
2018-03-14T10:27:59.766Z,48.30
2018-03-14T10:29:02.286Z,48.13
2018-03-14T10:30:04.833Z,47.72
2018-03-14T10:31:07.344Z,47.66
2018-03-14T10:32:10.225Z,47.72
2018-03-14T10:33:12.764Z,48.02
2018-03-14T10:34:15.314Z,48.55
2018-03-14T10:35:17.877Z,48.03
2018-03-14T10:36:20.549Z,47.83
2018-03-14T10:37:23.109Z,48.06
2018-03-14T10:38:26.691Z,48.16
2018-03-14T10:39:29.456Z,48.21
2018-03-14T10:40:32.055Z,48.29
2018-03-14T10:41:34.575Z,48.14
2018-03-14T10:42:37.108Z,48.14
2018-03-14T10:43:39.602Z,48.08
2018-03-14T10:44:42.120Z,48.11
2018-03-14T10:45:44.717Z,48.16
2018-03-14T10:46:47.232Z,48.09
2018-03-14T10:47:49.737Z,47.94
2018-03-14T10:48:52.229Z,47.81
2018-03-14T10:49:54.734Z,47.78
2018-03-14T10:50:57.792Z,47.67
2018-03-14T10:52:00.312Z,47.53
2018-03-14T10:53:02.862Z,47.53
2018-03-14T10:54:05.385Z,47.56
2018-03-14T10:55:07.907Z,47.61
2018-03-14T10:56:10.451Z,47.63
2018-03-14T10:57:12.982Z,47.69
2018-03-14T10:58:15.861Z,47.81
2018-03-14T10:59:18.400Z,48.03
2018-03-14T11:00:26.915Z,48.60
2018-03-14T11:01:34.973Z,48.27
2018-03-14T11:02:43.330Z,48.06
2018-03-14T11:03:45.863Z,48.06
2018-03-14T11:04:48.356Z,47.84
2018-03-14T11:05:51.005Z,47.79
2018-03-14T11:06:53.529Z,47.99
2018-03-14T11:07:56.025Z,47.97
2018-03-14T11:08:58.541Z,47.85
2018-03-14T11:10:01.044Z,47.36
2018-03-14T11:11:03.586Z,47.15
2018-03-14T11:12:06.102Z,46.98
2018-03-14T11:13:08.710Z,46.71
2018-03-14T11:14:11.347Z,46.56
2018-03-14T11:15:13.897Z,46.82
2018-03-14T11:16:16.457Z,46.98
2018-03-14T11:17:18.995Z,46.90
2018-03-14T11:18:21.514Z,46.53
2018-03-14T11:19:24.028Z,46.36
2018-03-14T11:20:26.555Z,46.41
2018-03-14T11:21:29.100Z,46.52
2018-03-14T11:22:31.646Z,46.63
2018-03-14T11:23:34.281Z,46.83
2018-03-14T11:24:36.787Z,46.97
2018-03-14T11:25:39.316Z,46.91
2018-03-14T11:26:41.813Z,46.68
2018-03-14T11:27:44.359Z,46.80
2018-03-14T11:28:46.882Z,46.90
2018-03-14T11:29:49.393Z,47.00
2018-03-14T11:30:51.901Z,47.40
2018-03-14T11:31:54.407Z,47.46
2018-03-14T11:32:56.977Z,47.45
2018-03-14T11:33:59.499Z,47.43
2018-03-14T11:35:02.004Z,47.41
2018-03-14T11:36:04.504Z,47.40
2018-03-14T11:37:06.986Z,47.55
2018-03-14T11:38:09.921Z,47.47
2018-03-14T11:39:12.434Z,47.48
2018-03-14T11:40:14.926Z,47.47
2018-03-14T11:41:17.431Z,47.61
2018-03-14T11:42:19.969Z,47.80
2018-03-14T11:43:22.496Z,47.64
2018-03-14T11:44:25.077Z,47.71
2018-03-14T11:45:27.608Z,47.69
2018-03-14T11:46:30.133Z,47.65
2018-03-14T11:47:32.671Z,47.69
2018-03-14T11:48:35.233Z,47.75
2018-03-14T11:49:37.747Z,47.66
2018-03-14T11:50:40.295Z,47.71
2018-03-14T11:51:42.894Z,47.81
2018-03-14T11:52:45.399Z,47.79
2018-03-14T11:53:47.902Z,47.80
2018-03-14T11:54:50.412Z,47.80
2018-03-14T11:55:52.945Z,47.86
2018-03-14T11:56:55.449Z,47.92
2018-03-14T11:57:57.974Z,48.06
2018-03-14T11:59:00.492Z,48.01
2018-03-14T12:00:03.002Z,47.98
2018-03-14T12:01:05.522Z,47.89
2018-03-14T12:02:08.027Z,47.56
2018-03-14T12:03:10.528Z,47.09
2018-03-14T12:04:13.063Z,47.07
2018-03-14T12:05:15.559Z,47.33
2018-03-14T12:06:18.054Z,47.23
2018-03-14T12:07:20.574Z,47.22
2018-03-14T12:08:23.078Z,47.18
2018-03-14T12:09:25.601Z,47.07
2018-03-14T12:10:28.143Z,47.30
2018-03-14T12:11:30.658Z,47.68
2018-03-14T12:12:33.163Z,48.00
2018-03-14T12:13:35.680Z,48.04
2018-03-14T12:14:38.204Z,48.11
2018-03-14T12:15:40.705Z,48.24
2018-03-14T12:16:43.230Z,48.25
2018-03-14T12:17:45.732Z,48.27
2018-03-14T12:18:48.232Z,48.33
2018-03-14T12:19:50.801Z,48.36
2018-03-14T12:20:53.520Z,47.87
2018-03-14T12:21:56.032Z,47.36
2018-03-14T12:22:58.522Z,47.50
2018-03-14T12:24:01.029Z,47.60
2018-03-14T12:25:03.557Z,47.65
2018-03-14T12:26:06.054Z,47.71
2018-03-14T12:27:08.558Z,47.66
2018-03-14T12:28:11.061Z,47.63
2018-03-14T12:29:13.589Z,47.65
2018-03-14T12:30:16.120Z,47.46
2018-03-14T12:31:18.634Z,47.55
2018-03-14T12:32:21.141Z,47.71
2018-03-14T12:33:23.772Z,47.73
2018-03-14T12:34:26.391Z,47.63
2018-03-14T12:35:28.935Z,47.68
2018-03-14T12:36:31.440Z,47.78
2018-03-14T12:37:33.958Z,47.85
2018-03-14T12:38:36.461Z,47.85
2018-03-14T12:39:39.033Z,47.74
2018-03-14T12:40:42.505Z,47.59
2018-03-14T12:41:45.014Z,47.28
2018-03-14T12:42:47.538Z,47.11
2018-03-14T12:43:51.116Z,47.06
2018-03-14T12:44:53.669Z,46.92
2018-03-14T12:45:56.338Z,46.86
2018-03-14T12:46:58.844Z,46.81
2018-03-14T12:48:01.352Z,46.67
2018-03-14T12:49:03.846Z,46.47
2018-03-14T12:50:06.359Z,46.24
2018-03-14T12:51:08.884Z,46.22
2018-03-14T12:52:11.546Z,46.26
2018-03-14T12:53:14.876Z,46.31
2018-03-14T12:54:18.691Z,46.40
2018-03-14T12:55:21.211Z,46.23
2018-03-14T12:56:23.751Z,46.07
2018-03-14T12:57:26.261Z,45.94
2018-03-14T12:58:28.787Z,45.83
2018-03-14T12:59:31.290Z,45.84
2018-03-14T13:00:33.796Z,45.69
2018-03-14T13:01:36.306Z,45.52
2018-03-14T13:02:38.831Z,45.25
2018-03-14T13:03:41.546Z,45.06
2018-03-14T13:04:44.295Z,45.03
2018-03-14T13:05:47.784Z,44.87
2018-03-14T13:06:50.313Z,44.78
2018-03-14T13:07:52.832Z,44.84
2018-03-14T13:08:55.394Z,44.88
2018-03-14T13:09:57.973Z,44.79
2018-03-14T13:11:00.561Z,44.88
2018-03-14T13:12:03.117Z,44.88
2018-03-14T13:13:05.675Z,44.70
2018-03-14T13:14:08.626Z,45.20
2018-03-14T13:15:11.411Z,44.57
2018-03-14T13:16:13.991Z,44.61
2018-03-14T13:17:16.538Z,45.02
2018-03-14T13:18:19.369Z,45.10
2018-03-14T13:19:21.894Z,45.47
2018-03-14T13:20:25.425Z,45.61
2018-03-14T13:21:27.966Z,45.86
2018-03-14T13:22:30.582Z,45.97
2018-03-14T13:23:33.110Z,46.04
2018-03-14T13:24:35.629Z,46.18
2018-03-14T13:25:38.161Z,46.30
2018-03-14T13:26:40.694Z,45.80
2018-03-14T13:27:43.390Z,45.62
2018-03-14T13:28:45.919Z,46.39